»·PEaware :: N4306H KAJO-KVCV

N4306H :: KAJO-KVCV

FLIGHT INFORMATION

Flight Status: Arrived
Operator: Privately registered:
United States
More flights under this callsign
Pilot: Lauro R. (32390)
Aircraft: CIRRUS VISIONJET
(SF50)
More flights by this aircraft type
Origin: KAJO Corona Mun
United States
Destination: KVCV Socal Logistics
United States
More flights between these airports :: More routes between these airports
Route: +PDZ V442 APLES
File this flight plan on PilotEdge
Remarks:
Altitude:
(Current/Filed)
15,000ft
Speed:
(Current/Filed)
230kts
Departed: 11-Nov-20 03:02 PM
Arrived: 11-Nov-20 04:21 PM
Distance/Time
Traveled:
43nm/1:19
Distance/Time
To Go:
Arrived

Flight Plot

Page will automatically refresh every two minutes.


Map Options




Map Legend


Flown Route
Filed Route
Departure Airport
Arrival Airport
Navaid (VOR, NDB)
Fix

Horizontal Profiles

Position Reports

Time Latitude Longitude Heading Altitude Ground
Speed
11-Nov-20 14:51 33.896673 -117.603199 2 537ft 7kts
11-Nov-20 14:52 33.897285 -117.600299 88 537ft 16kts
11-Nov-20 14:53 33.897273 -117.597518 39 537ft 0kts
11-Nov-20 14:54 33.897273 -117.597518 39 537ft 0kts
11-Nov-20 14:55 33.897273 -117.597518 39 537ft 0kts
11-Nov-20 14:56 33.897273 -117.597518 39 537ft 0kts
11-Nov-20 14:57 33.897273 -117.597518 39 537ft 0kts
11-Nov-20 14:58 33.897273 -117.597518 39 537ft 0kts
11-Nov-20 14:59 33.897273 -117.597518 39 537ft 0kts
11-Nov-20 15:00 33.897279 -117.597513 37 537ft 0kts
11-Nov-20 15:01 33.897676 -117.602699 268 538ft 86kts
11-Nov-20 15:02 33.906569 -117.635948 345 1598ft 126kts
11-Nov-20 15:03 33.925454 -117.602462 92 2781ft 146kts
11-Nov-20 15:04 33.921704 -117.552884 96 4006ft 155kts
11-Nov-20 15:05 33.950120 -117.511294 25 3998ft 180kts
11-Nov-20 15:06 33.995813 -117.483586 24 3994ft 187kts
11-Nov-20 15:07 33.896187 -117.603227 2 537ft 1kts
11-Nov-20 15:08 33.897200 -117.602203 67 537ft 12kts
11-Nov-20 15:09 33.897248 -117.597600 34 537ft 0kts
11-Nov-20 15:10 33.897495 -117.597459 0 537ft 9kts
11-Nov-20 15:11 33.900687 -117.624528 305 1443ft 123kts
11-Nov-20 15:12 33.923777 -117.605854 82 3334ft 150kts
11-Nov-20 15:13 33.926479 -117.546103 86 4014ft 224kts
11-Nov-20 15:14 33.965681 -117.499276 13 4000ft 239kts
11-Nov-20 15:15 34.023162 -117.467168 24 4875ft 216kts
11-Nov-20 15:16 34.075218 -117.435887 24 5940ft 205kts
11-Nov-20 15:17 34.126562 -117.404997 24 5993ft 210kts
11-Nov-20 15:18 34.179700 -117.372979 24 5992ft 214kts
11-Nov-20 15:19 34.232616 -117.341047 25 6202ft 204kts
11-Nov-20 15:33 33.897234 -117.597605 31 537ft 0kts
11-Nov-20 15:34 33.897234 -117.597605 31 537ft 0kts
11-Nov-20 15:35 33.897563 -117.597476 337 537ft 15kts
11-Nov-20 15:36 33.900538 -117.628382 308 1740ft 129kts
11-Nov-20 15:37 33.918557 -117.607696 85 3795ft 160kts
11-Nov-20 15:38 33.920164 -117.537879 88 4284ft 245kts
11-Nov-20 15:39 33.972600 -117.498498 8 4174ft 245kts
11-Nov-20 15:40 34.014311 -117.466315 107 4552ft 175kts
11-Nov-20 15:41 33.982402 -117.465715 220 5130ft 121kts
11-Nov-20 15:42 33.955312 -117.490528 222 5742ft 128kts
11-Nov-20 15:43 33.926376 -117.520077 224 6158ft 151kts
11-Nov-20 15:44 33.929313 -117.558100 359 6159ft 170kts
11-Nov-20 15:45 33.967016 -117.521153 41 6151ft 179kts
11-Nov-20 15:46 33.970719 -117.473757 165 6153ft 182kts
11-Nov-20 15:47 33.933315 -117.505408 231 6152ft 172kts
11-Nov-20 15:48 33.923551 -117.551511 332 6196ft 168kts
11-Nov-20 15:49 33.963721 -117.528580 35 7006ft 165kts
11-Nov-20 15:50 33.994418 -117.488962 90 7817ft 172kts
11-Nov-20 15:51 33.960077 -117.481922 221 8652ft 156kts
11-Nov-20 15:52 33.928998 -117.518405 225 9157ft 172kts
11-Nov-20 15:53 33.946521 -117.551010 28 9158ft 208kts
11-Nov-20 15:54 33.984507 -117.492628 34 9152ft 225kts
11-Nov-20 15:55 34.040761 -117.456600 23 9148ft 234kts
11-Nov-20 15:56 34.099617 -117.421211 23 9146ft 237kts
11-Nov-20 15:57 34.159120 -117.385379 23 9148ft 239kts
11-Nov-20 15:58 34.214014 -117.352257 23 9146ft 207kts
11-Nov-20 15:59 34.264075 -117.322032 23 9147ft 197kts
11-Nov-20 16:00 34.312511 -117.292740 23 9151ft 192kts
11-Nov-20 16:01 34.360224 -117.263850 23 9154ft 190kts
11-Nov-20 16:02 34.407528 -117.235170 23 9155ft 189kts
11-Nov-20 16:03 34.454826 -117.206460 24 8997ft 191kts
11-Nov-20 16:04 34.499023 -117.179581 23 8991ft 165kts
11-Nov-20 16:05 34.535447 -117.157412 23 8996ft 136kts
11-Nov-20 16:06 34.575244 -117.144140 4 8079ft 171kts
11-Nov-20 16:07 34.626728 -117.146067 350 6697ft 198kts
11-Nov-20 16:08 34.677713 -117.164616 335 6601ft 196kts
11-Nov-20 16:09 34.724662 -117.200305 320 6599ft 202kts
11-Nov-20 16:10 34.760974 -117.248476 305 6597ft 186kts
11-Nov-20 16:11 34.784698 -117.303419 291 6429ft 184kts
11-Nov-20 16:13 34.796278 -117.364557 268 5923ft 188kts
11-Nov-20 16:14 34.752449 -117.377488 178 5446ft 191kts
11-Nov-20 16:15 34.710573 -117.379822 184 4967ft 119kts
11-Nov-20 16:16 34.680766 -117.382505 184 4289ft 86kts
11-Nov-20 16:17 34.657882 -117.384697 187 3584ft 85kts
11-Nov-20 16:18 34.634636 -117.386855 180 3113ft 78kts
11-Nov-20 16:19 34.614849 -117.386691 180 2820ft 46kts
11-Nov-20 16:20 34.603419 -117.386577 179 2839ft 52kts
11-Nov-20 16:21 34.594884 -117.385105 92 2856ft 12kts
11-Nov-20 16:22 34.592509 -117.381085 136 2861ft 25kts
11-Nov-20 16:23 34.591108 -117.379382 135 2866ft 0kts
11-Nov-20 16:24 34.591108 -117.379382 135 2866ft 0kts
11-Nov-20 16:25 34.589657 -117.376641 42 2869ft 24kts
11-Nov-20 16:26 34.590976 -117.371381 312 2863ft 0kts

Navigation Log

Ident Type
Flight plan parsing failed, navigation log unavailable